sensor_id;sensor_type;location;lat;lon;timestamp;pressure;altitude;pressure_sealevel;temperature
80581;BMP180;1474;51.460;7.150;2023-06-22T00:00:59;100863.00;;;20.90
80581;BMP180;1474;51.460;7.150;2023-06-22T00:03:26;100854.00;;;20.90
80581;BMP180;1474;51.460;7.150;2023-06-22T00:05:52;100870.00;;;20.90
80581;BMP180;1474;51.460;7.150;2023-06-22T00:08:19;100879.00;;;20.80
80581;BMP180;1474;51.460;7.150;2023-06-22T00:10:46;100877.00;;;20.80
80581;BMP180;1474;51.460;7.150;2023-06-22T00:13:13;100867.00;;;20.80
80581;BMP180;1474;51.460;7.150;2023-06-22T00:15:41;100868.00;;;20.70
80581;BMP180;1474;51.460;7.150;2023-06-22T00:18:08;100875.00;;;20.60
80581;BMP180;1474;51.460;7.150;2023-06-22T00:20:34;100871.00;;;20.60
80581;BMP180;1474;51.460;7.150;2023-06-22T00:23:04;100878.00;;;20.70
80581;BMP180;1474;51.460;7.150;2023-06-22T00:25:40;100874.00;;;20.60
80581;BMP180;1474;51.460;7.150;2023-06-22T00:28:07;100878.00;;;20.70
80581;BMP180;1474;51.460;7.150;2023-06-22T00:30:34;100881.00;;;20.60
80581;BMP180;1474;51.460;7.150;2023-06-22T00:33:01;100873.00;;;20.70
80581;BMP180;1474;51.460;7.150;2023-06-22T00:35:27;100875.00;;;20.60
80581;BMP180;1474;51.460;7.150;2023-06-22T00:37:59;100876.00;;;20.60
80581;BMP180;1474;51.460;7.150;2023-06-22T00:40:32;100867.00;;;20.50
80581;BMP180;1474;51.460;7.150;2023-06-22T00:42:59;100870.00;;;20.50
80581;BMP180;1474;51.460;7.150;2023-06-22T00:51:32;100855.00;;;20.50
80581;BMP180;1474;51.460;7.150;2023-06-22T00:55:17;100855.00;;;20.40
80581;BMP180;1474;51.460;7.150;2023-06-22T00:58:33;100861.00;;;20.30
80581;BMP180;1474;51.460;7.150;2023-06-22T01:01:39;100859.00;;;20.40
80581;BMP180;1474;51.460;7.150;2023-06-22T01:09:45;100850.00;;;20.20
80581;BMP180;1474;51.460;7.150;2023-06-22T01:16:59;100854.00;;;20.10
80581;BMP180;1474;51.460;7.150;2023-06-22T01:23:50;100845.00;;;20.10
80581;BMP180;1474;51.460;7.150;2023-06-22T06:06:34;100770.00;;;19.40
80581;BMP180;1474;51.460;7.150;2023-06-22T06:09:42;100772.00;;;19.40
80581;BMP180;1474;51.460;7.150;2023-06-22T06:12:08;100761.00;;;19.50
80581;BMP180;1474;51.460;7.150;2023-06-22T06:14:34;100765.00;;;19.50
80581;BMP180;1474;51.460;7.150;2023-06-22T06:17:00;100759.00;;;19.60
80581;BMP180;1474;51.460;7.150;2023-06-22T06:19:25;100757.00;;;19.60
80581;BMP180;1474;51.460;7.150;2023-06-22T06:21:51;100761.00;;;19.60
80581;BMP180;1474;51.460;7.150;2023-06-22T06:24:17;100757.00;;;19.60
80581;BMP180;1474;51.460;7.150;2023-06-22T06:26:43;100755.00;;;19.70
80581;BMP180;1474;51.460;7.150;2023-06-22T06:29:08;100750.00;;;19.80
80581;BMP180;1474;51.460;7.150;2023-06-22T06:31:34;100741.00;;;19.90
80581;BMP180;1474;51.460;7.150;2023-06-22T06:34:00;100750.00;;;20.00
80581;BMP180;1474;51.460;7.150;2023-06-22T06:36:26;100747.00;;;20.10
80581;BMP180;1474;51.460;7.150;2023-06-22T06:38:51;100743.00;;;20.20
80581;BMP180;1474;51.460;7.150;2023-06-22T06:41:18;100744.00;;;20.20
80581;BMP180;1474;51.460;7.150;2023-06-22T06:43:44;100751.00;;;20.40
80581;BMP180;1474;51.460;7.150;2023-06-22T06:46:10;100748.00;;;20.50
80581;BMP180;1474;51.460;7.150;2023-06-22T06:48:36;100753.00;;;20.70
80581;BMP180;1474;51.460;7.150;2023-06-22T06:51:02;100751.00;;;20.90
80581;BMP180;1474;51.460;7.150;2023-06-22T06:53:28;100761.00;;;21.00
80581;BMP180;1474;51.460;7.150;2023-06-22T06:55:54;100746.00;;;21.00
80581;BMP180;1474;51.460;7.150;2023-06-22T06:58:20;100749.00;;;21.00
80581;BMP180;1474;51.460;7.150;2023-06-22T07:00:46;100744.00;;;20.90
80581;BMP180;1474;51.460;7.150;2023-06-22T07:03:11;100745.00;;;20.90
80581;BMP180;1474;51.460;7.150;2023-06-22T07:05:37;100746.00;;;21.00
80581;BMP180;1474;51.460;7.150;2023-06-22T07:08:03;100743.00;;;21.00
80581;BMP180;1474;51.460;7.150;2023-06-22T07:10:29;100741.00;;;20.90
80581;BMP180;1474;51.460;7.150;2023-06-22T07:12:55;100730.00;;;20.80
80581;BMP180;1474;51.460;7.150;2023-06-22T07:15:22;100725.00;;;20.90
80581;BMP180;1474;51.460;7.150;2023-06-22T07:17:48;100722.00;;;20.80
80581;BMP180;1474;51.460;7.150;2023-06-22T07:20:14;100725.00;;;20.70
80581;BMP180;1474;51.460;7.150;2023-06-22T07:22:42;100728.00;;;20.80
80581;BMP180;1474;51.460;7.150;2023-06-22T07:25:09;100735.00;;;20.70
80581;BMP180;1474;51.460;7.150;2023-06-22T07:27:42;100734.00;;;20.90
80581;BMP180;1474;51.460;7.150;2023-06-22T07:30:09;100734.00;;;20.70
80581;BMP180;1474;51.460;7.150;2023-06-22T07:32:36;100735.00;;;20.80
80581;BMP180;1474;51.460;7.150;2023-06-22T07:35:02;100729.00;;;20.90
80581;BMP180;1474;51.460;7.150;2023-06-22T07:37:29;100728.00;;;21.10
80581;BMP180;1474;51.460;7.150;2023-06-22T07:39:56;100722.00;;;21.10
80581;BMP180;1474;51.460;7.150;2023-06-22T07:42:26;100721.00;;;21.30
80581;BMP180;1474;51.460;7.150;2023-06-22T07:44:52;100726.00;;;21.30
80581;BMP180;1474;51.460;7.150;2023-06-22T07:47:18;100714.00;;;20.80
80581;BMP180;1474;51.460;7.150;2023-06-22T07:49:46;100711.00;;;20.80
80581;BMP180;1474;51.460;7.150;2023-06-22T07:52:12;100712.00;;;21.00
80581;BMP180;1474;51.460;7.150;2023-06-22T07:54:38;100706.00;;;20.80
80581;BMP180;1474;51.460;7.150;2023-06-22T07:57:05;100705.00;;;20.90
80581;BMP180;1474;51.460;7.150;2023-06-22T07:59:30;100702.00;;;21.10
80581;BMP180;1474;51.460;7.150;2023-06-22T08:01:56;100696.00;;;20.90
80581;BMP180;1474;51.460;7.150;2023-06-22T08:04:22;100697.00;;;21.10
80581;BMP180;1474;51.460;7.150;2023-06-22T08:06:48;100692.00;;;21.10
80581;BMP180;1474;51.460;7.150;2023-06-22T08:09:14;100677.00;;;21.10
80581;BMP180;1474;51.460;7.150;2023-06-22T08:11:40;100668.00;;;21.10
80581;BMP180;1474;51.460;7.150;2023-06-22T08:14:06;100669.00;;;20.90
80581;BMP180;1474;51.460;7.150;2023-06-22T08:16:32;100672.00;;;21.10
80581;BMP180;1474;51.460;7.150;2023-06-22T08:18:57;100670.00;;;20.90
80581;BMP180;1474;51.460;7.150;2023-06-22T08:21:23;100666.00;;;21.10
80581;BMP180;1474;51.460;7.150;2023-06-22T08:23:49;100666.00;;;21.20
80581;BMP180;1474;51.460;7.150;2023-06-22T08:26:15;100665.00;;;21.30
80581;BMP180;1474;51.460;7.150;2023-06-22T08:28:41;100664.00;;;21.10
80581;BMP180;1474;51.460;7.150;2023-06-22T08:31:06;100641.00;;;21.10
80581;BMP180;1474;51.460;7.150;2023-06-22T08:33:32;100630.00;;;21.40
80581;BMP180;1474;51.460;7.150;2023-06-22T08:35:59;100631.00;;;21.40
80581;BMP180;1474;51.460;7.150;2023-06-22T08:38:25;100625.00;;;21.40
80581;BMP180;1474;51.460;7.150;2023-06-22T08:40:51;100635.00;;;21.50
80581;BMP180;1474;51.460;7.150;2023-06-22T08:43:17;100631.00;;;21.50
80581;BMP180;1474;51.460;7.150;2023-06-22T08:45:42;100631.00;;;21.40
80581;BMP180;1474;51.460;7.150;2023-06-22T08:48:08;100632.00;;;21.40
80581;BMP180;1474;51.460;7.150;2023-06-22T08:50:34;100624.00;;;21.40
80581;BMP180;1474;51.460;7.150;2023-06-22T08:53:00;100622.00;;;21.50
80581;BMP180;1474;51.460;7.150;2023-06-22T08:55:25;100637.00;;;21.50
80581;BMP180;1474;51.460;7.150;2023-06-22T08:57:51;100631.00;;;21.70
80581;BMP180;1474;51.460;7.150;2023-06-22T09:00:17;100623.00;;;21.60
80581;BMP180;1474;51.460;7.150;2023-06-22T09:02:47;100624.00;;;21.50
80581;BMP180;1474;51.460;7.150;2023-06-22T09:05:13;100624.00;;;21.70
80581;BMP180;1474;51.460;7.150;2023-06-22T09:07:39;100611.00;;;21.80
80581;BMP180;1474;51.460;7.150;2023-06-22T09:10:06;100613.00;;;22.00
80581;BMP180;1474;51.460;7.150;2023-06-22T09:12:33;100613.00;;;22.50
80581;BMP180;1474;51.460;7.150;2023-06-22T09:15:00;100610.00;;;22.50
80581;BMP180;1474;51.460;7.150;2023-06-22T09:17:27;100598.00;;;22.50
80581;BMP180;1474;51.460;7.150;2023-06-22T09:19:53;100594.00;;;22.70
80581;BMP180;1474;51.460;7.150;2023-06-22T09:22:18;100600.00;;;23.20
80581;BMP180;1474;51.460;7.150;2023-06-22T09:24:44;100612.00;;;22.70
80581;BMP180;1474;51.460;7.150;2023-06-22T09:27:10;100600.00;;;23.20
80581;BMP180;1474;51.460;7.150;2023-06-22T09:29:36;100579.00;;;22.90
80581;BMP180;1474;51.460;7.150;2023-06-22T09:32:02;100582.00;;;23.70
80581;BMP180;1474;51.460;7.150;2023-06-22T09:34:27;100586.00;;;23.20
80581;BMP180;1474;51.460;7.150;2023-06-22T09:36:53;100571.00;;;23.90
80581;BMP180;1474;51.460;7.150;2023-06-22T09:39:19;100564.00;;;24.20
80581;BMP180;1474;51.460;7.150;2023-06-22T09:41:45;100544.00;;;24.40
80581;BMP180;1474;51.460;7.150;2023-06-22T09:44:11;100548.00;;;24.60
80581;BMP180;1474;51.460;7.150;2023-06-22T09:46:36;100560.00;;;24.80
80581;BMP180;1474;51.460;7.150;2023-06-22T09:49:02;100561.00;;;24.40
80581;BMP180;1474;51.460;7.150;2023-06-22T09:51:28;100574.00;;;24.70
80581;BMP180;1474;51.460;7.150;2023-06-22T09:53:54;100577.00;;;24.60
80581;BMP180;1474;51.460;7.150;2023-06-22T09:56:20;100564.00;;;25.00
80581;BMP180;1474;51.460;7.150;2023-06-22T09:58:47;100564.00;;;24.40
80581;BMP180;1474;51.460;7.150;2023-06-22T10:01:13;100553.00;;;24.30
80581;BMP180;1474;51.460;7.150;2023-06-22T10:03:42;100539.00;;;25.00
80581;BMP180;1474;51.460;7.150;2023-06-22T10:06:08;100531.00;;;25.30
80581;BMP180;1474;51.460;7.150;2023-06-22T10:08:35;100536.00;;;25.10
80581;BMP180;1474;51.460;7.150;2023-06-22T10:11:01;100526.00;;;25.80
80581;BMP180;1474;51.460;7.150;2023-06-22T10:13:27;100518.00;;;25.20
80581;BMP180;1474;51.460;7.150;2023-06-22T10:15:53;100556.00;;;25.10
80581;BMP180;1474;51.460;7.150;2023-06-22T10:18:19;100523.00;;;25.90
80581;BMP180;1474;51.460;7.150;2023-06-22T10:20:49;100522.00;;;25.80
80581;BMP180;1474;51.460;7.150;2023-06-22T10:23:21;100520.00;;;26.30
80581;BMP180;1474;51.460;7.150;2023-06-22T10:25:47;100518.00;;;26.50
80581;BMP180;1474;51.460;7.150;2023-06-22T10:28:13;100511.00;;;25.80
80581;BMP180;1474;51.460;7.150;2023-06-22T10:30:40;100520.00;;;26.50
80581;BMP180;1474;51.460;7.150;2023-06-22T10:33:11;100523.00;;;25.90
80581;BMP180;1474;51.460;7.150;2023-06-22T10:35:38;100512.00;;;26.10
80581;BMP180;1474;51.460;7.150;2023-06-22T10:38:04;100524.00;;;26.10
80581;BMP180;1474;51.460;7.150;2023-06-22T10:40:31;100514.00;;;25.60
80581;BMP180;1474;51.460;7.150;2023-06-22T10:42:57;100513.00;;;25.90
80581;BMP180;1474;51.460;7.150;2023-06-22T10:45:22;100514.00;;;26.20
80581;BMP180;1474;51.460;7.150;2023-06-22T10:47:48;100514.00;;;26.50
80581;BMP180;1474;51.460;7.150;2023-06-22T10:50:14;100513.00;;;25.90
80581;BMP180;1474;51.460;7.150;2023-06-22T10:52:40;100517.00;;;26.20
80581;BMP180;1474;51.460;7.150;2023-06-22T10:55:10;100528.00;;;25.60
80581;BMP180;1474;51.460;7.150;2023-06-22T10:57:36;100529.00;;;25.50
80581;BMP180;1474;51.460;7.150;2023-06-22T11:00:03;100552.00;;;25.70
80581;BMP180;1474;51.460;7.150;2023-06-22T11:02:32;100559.00;;;25.40
80581;BMP180;1474;51.460;7.150;2023-06-22T11:04:58;100559.00;;;25.50
80581;BMP180;1474;51.460;7.150;2023-06-22T11:07:26;100576.00;;;25.50
80581;BMP180;1474;51.460;7.150;2023-06-22T11:09:54;100588.00;;;25.20
80581;BMP180;1474;51.460;7.150;2023-06-22T11:12:20;100589.00;;;25.10
80581;BMP180;1474;51.460;7.150;2023-06-22T11:14:45;100589.00;;;25.00
80581;BMP180;1474;51.460;7.150;2023-06-22T11:17:12;100592.00;;;24.80
80581;BMP180;1474;51.460;7.150;2023-06-22T11:19:37;100597.00;;;24.60
80581;BMP180;1474;51.460;7.150;2023-06-22T11:22:03;100597.00;;;24.40
80581;BMP180;1474;51.460;7.150;2023-06-22T11:24:29;100599.00;;;24.20
80581;BMP180;1474;51.460;7.150;2023-06-22T11:26:55;100599.00;;;24.10
80581;BMP180;1474;51.460;7.150;2023-06-22T11:29:21;100594.00;;;23.70
80581;BMP180;1474;51.460;7.150;2023-06-22T11:31:46;100600.00;;;23.60
80581;BMP180;1474;51.460;7.150;2023-06-22T11:34:12;100600.00;;;23.40
80581;BMP180;1474;51.460;7.150;2023-06-22T11:36:38;100594.00;;;23.40
80581;BMP180;1474;51.460;7.150;2023-06-22T11:39:04;100608.00;;;23.40
80581;BMP180;1474;51.460;7.150;2023-06-22T11:41:30;100604.00;;;23.30
80581;BMP180;1474;51.460;7.150;2023-06-22T11:43:56;100605.00;;;23.10
80581;BMP180;1474;51.460;7.150;2023-06-22T11:46:22;100602.00;;;23.10
80581;BMP180;1474;51.460;7.150;2023-06-22T11:48:47;100599.00;;;22.80
80581;BMP180;1474;51.460;7.150;2023-06-22T11:51:13;100601.00;;;22.60
80581;BMP180;1474;51.460;7.150;2023-06-22T11:53:39;100598.00;;;22.50
80581;BMP180;1474;51.460;7.150;2023-06-22T11:56:05;100606.00;;;22.50
80581;BMP180;1474;51.460;7.150;2023-06-22T11:58:30;100599.00;;;22.40
80581;BMP180;1474;51.460;7.150;2023-06-22T12:00:56;100593.00;;;22.20
80581;BMP180;1474;51.460;7.150;2023-06-22T12:03:22;100573.00;;;22.10
80581;BMP180;1474;51.460;7.150;2023-06-22T12:05:50;100565.00;;;22.10
80581;BMP180;1474;51.460;7.150;2023-06-22T12:08:16;100549.00;;;21.80
80581;BMP180;1474;51.460;7.150;2023-06-22T12:10:42;100529.00;;;21.90
80581;BMP180;1474;51.460;7.150;2023-06-22T12:13:08;100506.00;;;22.10
80581;BMP180;1474;51.460;7.150;2023-06-22T12:15:33;100498.00;;;22.10
80581;BMP180;1474;51.460;7.150;2023-06-22T12:17:59;100508.00;;;22.30
80581;BMP180;1474;51.460;7.150;2023-06-22T12:20:26;100522.00;;;22.40
80581;BMP180;1474;51.460;7.150;2023-06-22T12:22:52;100504.00;;;21.90
80581;BMP180;1474;51.460;7.150;2023-06-22T12:25:19;100495.00;;;21.70
80581;BMP180;1474;51.460;7.150;2023-06-22T12:27:45;100489.00;;;22.00
80581;BMP180;1474;51.460;7.150;2023-06-22T12:30:11;100477.00;;;22.00
80581;BMP180;1474;51.460;7.150;2023-06-22T12:32:37;100475.00;;;21.90
80581;BMP180;1474;51.460;7.150;2023-06-22T12:35:03;100466.00;;;21.80
80581;BMP180;1474;51.460;7.150;2023-06-22T12:37:30;100442.00;;;21.60
80581;BMP180;1474;51.460;7.150;2023-06-22T12:39:57;100430.00;;;21.70
80581;BMP180;1474;51.460;7.150;2023-06-22T12:42:23;100430.00;;;21.60
80581;BMP180;1474;51.460;7.150;2023-06-22T12:44:48;100426.00;;;21.70
80581;BMP180;1474;51.460;7.150;2023-06-22T12:47:14;100442.00;;;21.60
80581;BMP180;1474;51.460;7.150;2023-06-22T12:49:40;100435.00;;;21.60
80581;BMP180;1474;51.460;7.150;2023-06-22T12:52:09;100426.00;;;21.60
80581;BMP180;1474;51.460;7.150;2023-06-22T12:54:38;100419.00;;;21.60
80581;BMP180;1474;51.460;7.150;2023-06-22T12:57:04;100399.00;;;21.30
80581;BMP180;1474;51.460;7.150;2023-06-22T12:59:30;100383.00;;;21.30
80581;BMP180;1474;51.460;7.150;2023-06-22T13:01:56;100382.00;;;21.30
80581;BMP180;1474;51.460;7.150;2023-06-22T13:04:21;100388.00;;;21.30
80581;BMP180;1474;51.460;7.150;2023-06-22T13:06:47;100375.00;;;21.40
80581;BMP180;1474;51.460;7.150;2023-06-22T13:09:18;100377.00;;;21.60
80581;BMP180;1474;51.460;7.150;2023-06-22T13:11:44;100377.00;;;21.50
80581;BMP180;1474;51.460;7.150;2023-06-22T13:14:10;100371.00;;;21.70
80581;BMP180;1474;51.460;7.150;2023-06-22T13:16:36;100368.00;;;21.70
80581;BMP180;1474;51.460;7.150;2023-06-22T13:19:02;100371.00;;;21.70
80581;BMP180;1474;51.460;7.150;2023-06-22T13:21:28;100368.00;;;21.90
80581;BMP180;1474;51.460;7.150;2023-06-22T13:23:53;100369.00;;;22.40
80581;BMP180;1474;51.460;7.150;2023-06-22T13:26:21;100374.00;;;22.20
80581;BMP180;1474;51.460;7.150;2023-06-22T13:28:47;100378.00;;;22.00
80581;BMP180;1474;51.460;7.150;2023-06-22T13:31:13;100382.00;;;22.00
80581;BMP180;1474;51.460;7.150;2023-06-22T13:33:39;100374.00;;;21.60
80581;BMP180;1474;51.460;7.150;2023-06-22T13:36:07;100378.00;;;21.70
80581;BMP180;1474;51.460;7.150;2023-06-22T13:38:35;100375.00;;;21.80
80581;BMP180;1474;51.460;7.150;2023-06-22T13:41:05;100371.00;;;21.70
80581;BMP180;1474;51.460;7.150;2023-06-22T13:43:31;100371.00;;;21.60
80581;BMP180;1474;51.460;7.150;2023-06-22T13:45:57;100370.00;;;21.70
80581;BMP180;1474;51.460;7.150;2023-06-22T13:48:23;100370.00;;;21.80
80581;BMP180;1474;51.460;7.150;2023-06-22T13:50:52;100368.00;;;21.90
80581;BMP180;1474;51.460;7.150;2023-06-22T13:53:18;100347.00;;;22.10
80581;BMP180;1474;51.460;7.150;2023-06-22T13:55:44;100325.00;;;22.90
80581;BMP180;1474;51.460;7.150;2023-06-22T13:58:09;100317.00;;;23.00
80581;BMP180;1474;51.460;7.150;2023-06-22T14:00:35;100317.00;;;22.90
80581;BMP180;1474;51.460;7.150;2023-06-22T14:03:01;100316.00;;;22.60
80581;BMP180;1474;51.460;7.150;2023-06-22T14:05:27;100331.00;;;22.70
80581;BMP180;1474;51.460;7.150;2023-06-22T14:07:52;100332.00;;;22.90
80581;BMP180;1474;51.460;7.150;2023-06-22T14:10:18;100332.00;;;22.60
80581;BMP180;1474;51.460;7.150;2023-06-22T14:12:44;100323.00;;;22.50
80581;BMP180;1474;51.460;7.150;2023-06-22T14:15:10;100312.00;;;22.60
80581;BMP180;1474;51.460;7.150;2023-06-22T14:17:36;100317.00;;;22.40
80581;BMP180;1474;51.460;7.150;2023-06-22T14:20:02;100302.00;;;22.00
80581;BMP180;1474;51.460;7.150;2023-06-22T14:22:28;100301.00;;;22.00
80581;BMP180;1474;51.460;7.150;2023-06-22T14:24:55;100307.00;;;22.10
80581;BMP180;1474;51.460;7.150;2023-06-22T14:27:23;100320.00;;;22.00
80581;BMP180;1474;51.460;7.150;2023-06-22T14:29:49;100305.00;;;21.90
80581;BMP180;1474;51.460;7.150;2023-06-22T14:32:15;100288.00;;;22.00
80581;BMP180;1474;51.460;7.150;2023-06-22T14:34:40;100295.00;;;22.00
80581;BMP180;1474;51.460;7.150;2023-06-22T14:37:07;100295.00;;;22.10
80581;BMP180;1474;51.460;7.150;2023-06-22T14:39:35;100301.00;;;22.00
80581;BMP180;1474;51.460;7.150;2023-06-22T14:42:01;100292.00;;;22.10
80581;BMP180;1474;51.460;7.150;2023-06-22T14:44:29;100280.00;;;22.00
80581;BMP180;1474;51.460;7.150;2023-06-22T14:46:56;100272.00;;;22.10
80581;BMP180;1474;51.460;7.150;2023-06-22T14:49:22;100282.00;;;21.90
80581;BMP180;1474;51.460;7.150;2023-06-22T14:51:48;100273.00;;;21.80
80581;BMP180;1474;51.460;7.150;2023-06-22T14:54:13;100265.00;;;21.80
80581;BMP180;1474;51.460;7.150;2023-06-22T14:56:39;100264.00;;;21.90
80581;BMP180;1474;51.460;7.150;2023-06-22T14:59:06;100259.00;;;21.80
80581;BMP180;1474;51.460;7.150;2023-06-22T15:01:32;100243.00;;;21.60
80581;BMP180;1474;51.460;7.150;2023-06-22T15:03:57;100226.00;;;21.60
80581;BMP180;1474;51.460;7.150;2023-06-22T15:06:23;100219.00;;;21.60
80581;BMP180;1474;51.460;7.150;2023-06-22T15:08:49;100201.00;;;21.80
80581;BMP180;1474;51.460;7.150;2023-06-22T15:11:15;100172.00;;;22.20
80581;BMP180;1474;51.460;7.150;2023-06-22T15:13:41;100182.00;;;22.10
80581;BMP180;1474;51.460;7.150;2023-06-22T15:16:08;100192.00;;;22.00
80581;BMP180;1474;51.460;7.150;2023-06-22T15:18:35;100186.00;;;21.80
80581;BMP180;1474;51.460;7.150;2023-06-22T15:21:03;100182.00;;;21.60
80581;BMP180;1474;51.460;7.150;2023-06-22T15:23:30;100189.00;;;21.50
80581;BMP180;1474;51.460;7.150;2023-06-22T15:25:57;100181.00;;;21.50
80581;BMP180;1474;51.460;7.150;2023-06-22T15:28:24;100193.00;;;21.40
80581;BMP180;1474;51.460;7.150;2023-06-22T15:30:50;100202.00;;;21.40
80581;BMP180;1474;51.460;7.150;2023-06-22T15:33:18;100197.00;;;21.40
80581;BMP180;1474;51.460;7.150;2023-06-22T15:35:44;100190.00;;;21.40
80581;BMP180;1474;51.460;7.150;2023-06-22T15:38:09;100183.00;;;21.20
80581;BMP180;1474;51.460;7.150;2023-06-22T15:40:35;100182.00;;;21.10
80581;BMP180;1474;51.460;7.150;2023-06-22T15:43:01;100185.00;;;21.10
80581;BMP180;1474;51.460;7.150;2023-06-22T15:45:27;100203.00;;;21.00
80581;BMP180;1474;51.460;7.150;2023-06-22T15:47:54;100254.00;;;20.90
80581;BMP180;1474;51.460;7.150;2023-06-22T15:50:19;100288.00;;;21.10
80581;BMP180;1474;51.460;7.150;2023-06-22T15:52:46;100266.00;;;20.90
80581;BMP180;1474;51.460;7.150;2023-06-22T15:55:15;100224.00;;;20.70
80581;BMP180;1474;51.460;7.150;2023-06-22T15:57:41;100224.00;;;20.60
80581;BMP180;1474;51.460;7.150;2023-06-22T16:00:16;100222.00;;;20.40
80581;BMP180;1474;51.460;7.150;2023-06-22T16:02:46;100217.00;;;20.40
80581;BMP180;1474;51.460;7.150;2023-06-22T16:05:13;100192.00;;;20.20
80581;BMP180;1474;51.460;7.150;2023-06-22T16:07:40;100181.00;;;20.20
80581;BMP180;1474;51.460;7.150;2023-06-22T16:10:06;100180.00;;;20.10
80581;BMP180;1474;51.460;7.150;2023-06-22T16:12:36;100180.00;;;20.10
80581;BMP180;1474;51.460;7.150;2023-06-22T16:15:05;100163.00;;;20.10
80581;BMP180;1474;51.460;7.150;2023-06-22T16:17:31;100177.00;;;20.20
80581;BMP180;1474;51.460;7.150;2023-06-22T16:19:56;100179.00;;;20.10
80581;BMP180;1474;51.460;7.150;2023-06-22T16:22:24;100171.00;;;20.00
80581;BMP180;1474;51.460;7.150;2023-06-22T16:24:51;100159.00;;;19.90
80581;BMP180;1474;51.460;7.150;2023-06-22T16:27:18;100157.00;;;19.90
80581;BMP180;1474;51.460;7.150;2023-06-22T16:29:44;100133.00;;;19.90
80581;BMP180;1474;51.460;7.150;2023-06-22T16:32:10;100139.00;;;19.80
80581;BMP180;1474;51.460;7.150;2023-06-22T16:34:36;100122.00;;;19.70
80581;BMP180;1474;51.460;7.150;2023-06-22T16:37:01;100113.00;;;19.60
80581;BMP180;1474;51.460;7.150;2023-06-22T16:39:27;100122.00;;;19.60
80581;BMP180;1474;51.460;7.150;2023-06-22T16:41:53;100111.00;;;19.50
80581;BMP180;1474;51.460;7.150;2023-06-22T16:44:19;100114.00;;;19.50
80581;BMP180;1474;51.460;7.150;2023-06-22T16:46:44;100115.00;;;19.50
80581;BMP180;1474;51.460;7.150;2023-06-22T16:49:10;100114.00;;;19.50
80581;BMP180;1474;51.460;7.150;2023-06-22T16:51:36;100105.00;;;19.50
80581;BMP180;1474;51.460;7.150;2023-06-22T16:54:02;100100.00;;;19.50
80581;BMP180;1474;51.460;7.150;2023-06-22T16:56:29;100093.00;;;19.60
80581;BMP180;1474;51.460;7.150;2023-06-22T16:58:57;100087.00;;;19.50
80581;BMP180;1474;51.460;7.150;2023-06-22T17:01:25;100082.00;;;19.50
80581;BMP180;1474;51.460;7.150;2023-06-22T17:04:12;100091.00;;;19.60
80581;BMP180;1474;51.460;7.150;2023-06-22T17:06:48;100087.00;;;19.50
80581;BMP180;1474;51.460;7.150;2023-06-22T17:09:17;100080.00;;;19.40
80581;BMP180;1474;51.460;7.150;2023-06-22T17:11:43;100084.00;;;19.40
80581;BMP180;1474;51.460;7.150;2023-06-22T17:14:10;100064.00;;;19.40
80581;BMP180;1474;51.460;7.150;2023-06-22T17:16:43;100060.00;;;19.40
80581;BMP180;1474;51.460;7.150;2023-06-22T17:19:11;100057.00;;;19.40
80581;BMP180;1474;51.460;7.150;2023-06-22T17:21:38;100064.00;;;19.40
80581;BMP180;1474;51.460;7.150;2023-06-22T17:24:05;100048.00;;;19.40
80581;BMP180;1474;51.460;7.150;2023-06-22T17:26:31;100050.00;;;19.40
80581;BMP180;1474;51.460;7.150;2023-06-22T17:28:57;100047.00;;;19.40
80581;BMP180;1474;51.460;7.150;2023-06-22T17:31:47;100032.00;;;19.40
80581;BMP180;1474;51.460;7.150;2023-06-22T17:34:16;100032.00;;;19.40
80581;BMP180;1474;51.460;7.150;2023-06-22T17:36:47;100033.00;;;19.40
80581;BMP180;1474;51.460;7.150;2023-06-22T17:39:22;100034.00;;;19.30
80581;BMP180;1474;51.460;7.150;2023-06-22T17:41:50;100023.00;;;19.30
80581;BMP180;1474;51.460;7.150;2023-06-22T17:44:30;100035.00;;;19.30
80581;BMP180;1474;51.460;7.150;2023-06-22T17:46:58;100028.00;;;19.30
80581;BMP180;1474;51.460;7.150;2023-06-22T17:49:29;100028.00;;;19.30
80581;BMP180;1474;51.460;7.150;2023-06-22T17:51:57;100028.00;;;19.30
80581;BMP180;1474;51.460;7.150;2023-06-22T17:54:29;100027.00;;;19.40
80581;BMP180;1474;51.460;7.150;2023-06-22T17:56:55;100028.00;;;19.30
80581;BMP180;1474;51.460;7.150;2023-06-22T17:59:21;100031.00;;;19.30
80581;BMP180;1474;51.460;7.150;2023-06-22T18:01:47;100022.00;;;19.30
80581;BMP180;1474;51.460;7.150;2023-06-22T18:04:18;100026.00;;;19.30
80581;BMP180;1474;51.460;7.150;2023-06-22T18:06:48;100023.00;;;19.30
80581;BMP180;1474;51.460;7.150;2023-06-22T18:09:16;100013.00;;;19.30
80581;BMP180;1474;51.460;7.150;2023-06-22T18:11:49;100024.00;;;19.30
80581;BMP180;1474;51.460;7.150;2023-06-22T18:14:19;100017.00;;;19.30
80581;BMP180;1474;51.460;7.150;2023-06-22T18:16:47;100014.00;;;19.30
80581;BMP180;1474;51.460;7.150;2023-06-22T18:19:15;100018.00;;;19.20
80581;BMP180;1474;51.460;7.150;2023-06-22T18:21:45;100019.00;;;19.40
80581;BMP180;1474;51.460;7.150;2023-06-22T18:24:13;100002.00;;;19.30
80581;BMP180;1474;51.460;7.150;2023-06-22T18:26:40;100001.00;;;19.30
80581;BMP180;1474;51.460;7.150;2023-06-22T18:29:08;99994.00;;;19.30
80581;BMP180;1474;51.460;7.150;2023-06-22T18:31:35;99985.00;;;19.30
80581;BMP180;1474;51.460;7.150;2023-06-22T18:34:02;99986.00;;;19.30
80581;BMP180;1474;51.460;7.150;2023-06-22T18:36:45;99991.00;;;19.40
80581;BMP180;1474;51.460;7.150;2023-06-22T18:39:12;99984.00;;;19.40
80581;BMP180;1474;51.460;7.150;2023-06-22T18:41:41;99977.00;;;19.40
80581;BMP180;1474;51.460;7.150;2023-06-22T18:44:28;99973.00;;;19.40
80581;BMP180;1474;51.460;7.150;2023-06-22T18:47:05;99975.00;;;19.40
80581;BMP180;1474;51.460;7.150;2023-06-22T18:52:15;99969.00;;;19.40
80581;BMP180;1474;51.460;7.150;2023-06-22T18:54:48;99968.00;;;19.40
80581;BMP180;1474;51.460;7.150;2023-06-22T18:57:26;99958.00;;;19.40
80581;BMP180;1474;51.460;7.150;2023-06-22T18:59:59;99952.00;;;19.40
80581;BMP180;1474;51.460;7.150;2023-06-22T19:10:27;99972.00;;;19.50
80581;BMP180;1474;51.460;7.150;2023-06-22T19:12:57;99960.00;;;19.50
80581;BMP180;1474;51.460;7.150;2023-06-22T19:15:33;99962.00;;;19.50
80581;BMP180;1474;51.460;7.150;2023-06-22T19:18:15;99964.00;;;19.50
80581;BMP180;1474;51.460;7.150;2023-06-22T19:20:42;99959.00;;;19.50
80581;BMP180;1474;51.460;7.150;2023-06-22T19:23:43;99956.00;;;19.50